Indian Springs, Nevada Weather observations

Data are for observation ending at time listed.
 Day   Time    Ave.   Ave.  Ave.  Vector   Max.   Stn.    Total    Solar   Ave.  
  of    of     Air    Rel.  Wind   Wind    Wind   Baro.  Precip.   Rad.    Soil  
Year   Day     Temp.  Hum.  Speed  Dir.    Gust   Pres.                    Temp. 
2016   (PST)    F      %     mph   deg.    mph     mb.     in.     W/m2     F   
------------------------------------------------------------------------------
 211   11:10  104.4    12    2.0   117      6.0   908.0    0.00     988    97.9
 211   11:20  104.5    12    1.9    52      4.9   908.0    0.00     991    98.4
 211   11:30  105.1    12    2.1    13      5.5   907.9    0.00     999    99.0
 211   11:40  105.7    12    1.8    17      4.8   907.8    0.00    1004    99.6
 211   11:50  105.9    12    2.1     8      5.3   907.8    0.00    1007    100.2
 211   12:00  105.6    12    3.0    39      8.6   907.6    0.00    1008    100.7
 211   12:10  105.5    11    3.6    55      9.3   907.5    0.00    1009    101.3
 211   12:20  105.4    11    2.6    37      6.4   907.3    0.00    1007    101.8
 211   12:30  106.2    11    2.2    96      6.5   907.2    0.00    1018    102.4
 211   12:40  106.5    11    2.2   177      5.2   907.0    0.00    1016    102.9
 211   12:50  107.4    11    2.1   105      6.8   906.9    0.00    1015    103.4
 211   13:00  107.6    11    3.4   117     12.3   906.7    0.00    1026    103.9
 211   13:10  106.5    12    5.4   138     16.1   906.4    0.00     499    104.4
 211   13:20  104.7    12    5.1   172     10.5   906.3    0.00     341    105.0
 211   13:30  103.7    12    4.3   162      9.5   906.2    0.00     118    105.5
 211   13:40  102.4    12    6.7   205     11.9   906.2    0.00      97    105.9
 211   13:50  100.6    16   11.5   242     25.3   906.0    0.00      98    106.3
 211   14:00   97.4    19    7.3   207     17.0   905.5    0.00     103    106.5
 211   14:10   98.5    18    4.1   202      8.8   904.6    0.00     115    106.6
 211   14:20   97.5    22    4.2   183      7.7   904.1    0.00     166    106.6
 211   14:30   99.2    17    3.9   180      7.7   903.9    0.00     491    106.5
 211   14:40  102.1    14    5.1   191      9.7   903.9    0.00     611    106.4
 211   14:50  102.8    13    4.1   174      7.8   904.1    0.00     487    106.1
 211   15:00  103.3    13    2.9   157      6.6   904.2    0.00     200    105.9
 211   15:10  102.5    13    3.0   170      6.6   904.3    0.00     161    105.7
 211   15:20  102.8    13    1.2   156      3.0   904.3    0.00     149    105.5
 211   15:30  103.0    12    1.1   149      2.8   904.3    0.00     432    105.4
 211   15:40  105.6    12    1.6   126      3.7   904.0    0.00     708    105.3
 211   15:50  106.1    12    2.1    28      8.9   904.3    0.00     632    105.3
 211   16:00  104.1    13    4.3     6     11.6   904.5    0.00     465    105.1
 211   16:10  102.0    13    4.1     1     10.7   904.6    0.00     286    105.1
 211   16:20  102.6    13    3.9    17     10.1   904.4    0.00     521    105.1
 211   16:30  103.2    13    4.5    24     13.4   904.3    0.00     394    105.1
 211   16:40  101.5    13    4.9    29     12.0   904.1    0.00     101    105.1
 211   16:50  101.2    13    3.6    36     10.2   903.9    0.00      93    105.1
 211   17:00  102.1    13    2.3    18      6.6   903.9    0.00     143    105.1
 211   17:10  102.4    13    1.8   355      5.8   903.9    0.00     170    105.0
 211   17:20  102.4    13    1.6    35      4.4   903.9    0.00     154    105.0
 211   17:30  101.6    13    4.2    84     12.1   903.9    0.00      72    104.9
 211   17:40  100.4    13    5.9    78     11.4   904.0    0.00      48    104.8
 211   17:50  100.1    14    4.9    97     10.4   903.9    0.00      35    104.7
 211   18:00   99.7    13    5.5    91     11.6   903.8    0.00      21    104.6
 211   18:10   99.5    14    2.3   148      8.9   904.4    0.00       9    104.5
 211   18:20   96.2    18   12.3   249     26.0   904.8    0.00       5    104.3
 211   18:30   94.2    21    6.0   275     13.0   904.9    0.00       0    104.2
 211   18:40   94.2    20    5.7   248     11.4   904.9    0.00       0    104.1
 211   18:50   93.0    24    5.9   248     11.6   905.0    0.00       0    103.9
 211   19:00   93.2    20    6.1   263     14.2   905.0    0.00       0    103.8
 211   19:10   95.6    16    4.9   299      9.6   904.9    0.00       0    103.5
 211   19:20   96.5    15    4.8   310     12.3   905.1    0.00       0    103.3
 211   19:30   96.9    15    3.4   318     10.7   905.5    0.00       0    103.1
 211   19:40   93.7    21    3.9   295      8.2   905.9    0.00       0    102.9
 211   19:50   93.4    19    5.4   299     10.4   905.8    0.00       0    102.7
 211   20:00   94.0    18    5.5   324     10.4   905.7    0.00       0    102.5
 211   20:10   94.6    17    5.7   360     16.1   905.7    0.00       0    102.3
 211   20:20   94.6    17    5.3    24     15.6   905.8    0.00       0    102.1
 211   20:30   93.5    19    4.0   356      9.8   905.8    0.00       0    101.9
 211   20:40   92.5    19    2.5   337      9.3   905.7    0.00       0    101.8
 211   20:50   92.4    19    3.0   316      7.2   905.4    0.00       0    101.6
 211   21:00   91.8    20    2.9   300      7.6   905.3    0.00       0    101.5
 211   21:10   91.5    20    1.1   323      3.4   905.0    0.00       0    101.3
 211   21:20   91.6    20    1.2   356      4.7   904.9    0.00       0    101.2
 211   21:30   91.4    20    1.5   206      3.0   905.0    0.00       0    101.0
 211   21:40   91.4    20    2.4   207      4.1   905.1    0.00       0    100.9
 211   21:50   91.9    20    0.9   228      2.9   905.0    0.00       0    100.7
 211   22:00   91.5    20    1.4   219      2.5   904.8    0.00       0    100.5
 211   22:10   91.0    21    0.0   191      0.7   904.6    0.00       0    100.4
 211   22:20   89.8    22    0.6   290      1.8   904.7    0.00       0    100.2
 211   22:30   88.9    23    0.4   232      1.3   904.5    0.00       0    100.1
 211   22:40   88.0    24    0.8   178      2.3   904.4    0.00       0    99.9
 211   22:50   87.9    23    1.7   180      3.3   904.0    0.00       0    99.8
 211   23:00   89.8    20    2.5   191      5.4   903.9    0.00       0    99.6
 211   23:10   90.6    20    3.6   190      6.1   903.8    0.00       0    99.4
 211   23:20   90.9    19    1.9   194      4.2   903.9    0.00       0    99.2
 211   23:30   90.2    21    1.3   295      4.5   904.0    0.00       0    99.0
 211   23:40   86.3    27    2.7   308      4.8   903.9    0.00       0    98.9
 211   23:50   85.3    28    2.0   294      4.3   903.7    0.00       0    98.7
 212    0:00   84.2    30    2.7   300      4.5   903.5    0.00       0    98.6
 212    0:10   83.4    32    2.0   289      4.5   903.4    0.00       0    98.4
 212    0:20   83.8    30    1.7   259      3.7   903.2    0.00       0    98.3
 212    0:30   83.7    30    1.2   252      3.3   903.2    0.00       0    98.1
 212    0:40   83.5    30    0.5   218      1.9   903.0    0.00       0    97.9
 212    0:50   82.6    31    0.7   123      2.0   903.0    0.00       0    97.8
 212    1:00   82.1    32    0.9   317      2.7   902.9    0.00       0    97.6
 212    1:10   82.2    33    1.4   247      2.8   902.8    0.00       0    97.4
 212    1:20   81.4    33    1.4   188      2.9   902.6    0.00       0    97.2
 212    1:30   80.6    34    1.8    84      4.2   902.7    0.00       0    97.0
 212    1:40   80.1    34    1.5    78      3.1   902.7    0.00       0    96.9
 212    1:50   80.2    34    0.2   100      1.2   902.7    0.00       0    96.7
 212    2:00   80.2    33    0.1    27      1.1   902.7    0.00       0    96.5
 212    2:10   80.2    33    1.2   252      2.6   902.7    0.00       0    96.4
 212    2:20   80.5    33    0.8   283      2.0   902.6    0.00       0    96.2
 212    2:30   80.2    34    0.9   292      2.3   902.6    0.00       0    96.1
 212    2:40   79.9    34    0.4   344      1.8   902.5    0.00       0    95.9
 212    2:50   79.4    36    0.3   272      1.7   902.6    0.00       0    95.7
 212    3:00   79.9    32    1.1    47      3.7   902.5    0.00       0    95.6
 212    3:10   80.7    29    2.3    54      6.1   902.6    0.00       0    95.4
 212    3:20   82.1    28    2.1    82      6.8   902.7    0.00       0    95.2
 212    3:30   83.6    32    2.8   113      9.2   902.7    0.00       0    95.1
 212    3:40   83.5    36    5.1   104     14.0   902.7    0.00       0    94.9
 212    3:50   83.4    37    5.5   106     14.5   902.8    0.00       0    94.8
 212    4:00   83.2    39    6.9   102     15.3   902.8    0.00       0    94.6
 212    4:10   82.4    42    5.6   104     16.2   903.0    0.00       0    94.5
 212    4:20   82.0    44    3.6   128     10.0   903.1    0.00       0    94.4
 212    4:30   82.3    43    3.8   129     15.3   903.2    0.00       1    94.2
 212    4:40   82.3    43    3.0   116     11.7   903.3    0.00       3    94.1
 212    4:50   82.0    44    4.8   105     14.5   903.5    0.00       3    94.0
 212    5:00   81.5    46    4.2   107     12.6   903.7    0.00       5    93.9
 212    5:10   81.3    46    3.1   116     11.1   903.8    0.00      11    93.8
 212    5:20   81.4    45    2.7   132     13.6   904.0    0.00      21    93.7
 212    5:30   81.4    45    1.8   119      8.1   904.2    0.00      42    93.6
 212    5:40   81.3    46    2.7   103      8.8   904.2    0.00      65    93.4
 212    5:50   81.4    45    2.1   108      7.6   904.3    0.00      89    93.3
 212    6:00   81.8    44    2.8   103      9.9   904.5    0.00     117    93.2
 212    6:10   82.3    43    3.3    95     10.5   904.6    0.00     154    93.1
 212    6:20   82.5    43    3.1   106      8.8   904.9    0.00     185    93.0
 212    6:30   82.7    42    2.5   109      6.9   905.1    0.00     144    92.9
 212    6:40   82.9    38    2.4   237      4.5   905.2    0.00     238    92.9
 212    6:50   83.5    38    1.3   251      2.9   905.4    0.00     186    92.8
 212    7:00   82.8    40    2.8   241      4.3   905.6    0.00     271    92.8
 212    7:10   83.9    38    2.3   259      4.2   905.8    0.00     372    92.7
 212    7:20   84.4    38    2.0   275      4.2   906.1    0.00     409    92.7
 212    7:30   85.3    36    2.2   260      4.8   906.3    0.00     442    92.7
 212    7:40   85.7    35    2.0   284      3.6   906.6    0.00     470    92.7
 212    7:50   86.8    34    1.8   264      3.9   906.8    0.00     497    92.8
 212    8:00   87.7    33    1.2   239      3.1   906.9    0.00     534    92.9
 212    8:10   89.1    32    1.0    38      2.7   907.0    0.00     572    93.0
 212    8:20   89.4    31    1.1   302      2.2   907.2    0.00     597    93.1
 212    8:30   90.6    30    0.9     8      2.9   907.3    0.00     625    93.3
 212    8:40   91.1    30    1.3     8      2.9   907.4    0.00     652    93.5
 212    8:50   91.3    29    1.5   345      4.3   907.6    0.00     676    93.8
 212    9:00   90.8    30    1.3   317      2.9   907.8    0.00     691    94.0
 212    9:10   91.0    29    1.7   311      5.0   908.0    0.00     718    94.3
 212    9:20   91.8    29    1.8   345      6.1   908.1    0.00     745    94.6
 212    9:30   92.8    27    2.3    15      6.0   908.1    0.00     760    94.9
 212    9:40   93.6    26    2.0    45      6.5   908.1    0.00     788    95.2
 212    9:50   93.9    26    2.5     9      5.8   908.1    0.00     804    95.5
 212   10:00   94.0    26    1.7    26      6.4   908.1    0.00     825    95.9
 212   10:10   94.3    26    1.9   344      4.5   908.1    0.00     823    96.2
 212   10:20   94.9    25    2.9    26      7.8   908.0    0.00     847    96.6
 212   10:30   95.3    24    1.7   350      5.1   908.0    0.00     864    97.0
 212   10:40   95.3    24    2.2   293      6.3   908.0    0.00     886    97.4
 212   10:50   94.6    24    3.1   252      6.3   907.9    0.00     905    97.8
 212   11:00   94.9    24    2.4   240      5.6   907.7    0.00     899    98.2

Return to Indian Springs, Nevada graphs page.


Western Regional Climate Center,wrcc@dri.edu